sensor_id;sensor_type;location;lat;lon;timestamp;pressure;altitude;pressure_sealevel;temperature;humidity
10518;BME280;5307;42.548;22.968;2022-08-27T00:01:07;93505.34;;;17.05;75.98
10518;BME280;5307;42.548;22.968;2022-08-27T00:03:34;93502.75;;;16.84;77.38
10518;BME280;5307;42.548;22.968;2022-08-27T00:06:02;93505.00;;;16.86;77.33
10518;BME280;5307;42.548;22.968;2022-08-27T00:08:29;93494.97;;;16.77;78.07
10518;BME280;5307;42.548;22.968;2022-08-27T00:10:57;93490.72;;;16.82;77.93
10518;BME280;5307;42.548;22.968;2022-08-27T00:13:24;93484.91;;;16.69;77.97
10518;BME280;5307;42.548;22.968;2022-08-27T00:15:51;93489.97;;;16.81;77.79
10518;BME280;5307;42.548;22.968;2022-08-27T00:18:18;93491.47;;;16.77;78.62
10518;BME280;5307;42.548;22.968;2022-08-27T00:20:45;93496.09;;;16.54;79.15
10518;BME280;5307;42.548;22.968;2022-08-27T00:23:12;93494.94;;;16.72;78.08
10518;BME280;5307;42.548;22.968;2022-08-27T00:25:39;93485.66;;;16.69;77.42
10518;BME280;5307;42.548;22.968;2022-08-27T00:28:07;93475.63;;;15.81;80.63
10518;BME280;5307;42.548;22.968;2022-08-27T00:30:34;93483.84;;;16.12;78.79
10518;BME280;5307;42.548;22.968;2022-08-27T00:33:01;93489.75;;;16.37;77.43
10518;BME280;5307;42.548;22.968;2022-08-27T00:35:29;93492.75;;;16.33;77.67
10518;BME280;5307;42.548;22.968;2022-08-27T00:37:56;93495.63;;;16.18;77.88
10518;BME280;5307;42.548;22.968;2022-08-27T00:40:22;93487.88;;;16.17;77.33
10518;BME280;5307;42.548;22.968;2022-08-27T00:42:49;93501.00;;;16.33;76.93
10518;BME280;5307;42.548;22.968;2022-08-27T00:45:21;93504.44;;;16.22;78.34
10518;BME280;5307;42.548;22.968;2022-08-27T00:47:52;93502.72;;;16.25;78.54
10518;BME280;5307;42.548;22.968;2022-08-27T00:50:26;93504.22;;;16.26;78.51
10518;BME280;5307;42.548;22.968;2022-08-27T00:52:56;93498.44;;;16.24;78.76
10518;BME280;5307;42.548;22.968;2022-08-27T00:55:26;93504.69;;;16.19;79.66
10518;BME280;5307;42.548;22.968;2022-08-27T00:58:01;93500.69;;;16.20;79.20
10518;BME280;5307;42.548;22.968;2022-08-27T01:00:30;93501.06;;;16.01;79.79
10518;BME280;5307;42.548;22.968;2022-08-27T01:02:56;93499.34;;;16.10;79.71
10518;BME280;5307;42.548;22.968;2022-08-27T01:05:23;93497.59;;;16.07;79.98
10518;BME280;5307;42.548;22.968;2022-08-27T01:07:55;93500.06;;;16.04;79.37
10518;BME280;5307;42.548;22.968;2022-08-27T01:10:25;93494.31;;;15.71;80.21
10518;BME280;5307;42.548;22.968;2022-08-27T01:12:54;93487.66;;;15.83;80.03
10518;BME280;5307;42.548;22.968;2022-08-27T01:15:25;93491.50;;;15.91;80.46
10518;BME280;5307;42.548;22.968;2022-08-27T01:17:53;93497.59;;;16.07;79.84
10518;BME280;5307;42.548;22.968;2022-08-27T01:20:23;93486.69;;;15.86;80.59
10518;BME280;5307;42.548;22.968;2022-08-27T01:23:06;93497.00;;;15.91;79.89
10518;BME280;5307;42.548;22.968;2022-08-27T01:25:40;93498.69;;;16.20;79.43
10518;BME280;5307;42.548;22.968;2022-08-27T01:28:07;93500.34;;;16.07;79.77
10518;BME280;5307;42.548;22.968;2022-08-27T01:30:35;93501.44;;;15.57;81.43
10518;BME280;5307;42.548;22.968;2022-08-27T01:33:07;93494.19;;;15.86;80.48
10518;BME280;5307;42.548;22.968;2022-08-27T01:35:34;93509.16;;;15.79;80.62
10518;BME280;5307;42.548;22.968;2022-08-27T01:38:01;93505.16;;;15.80;81.37
10518;BME280;5307;42.548;22.968;2022-08-27T01:40:28;93503.59;;;15.73;81.42
10518;BME280;5307;42.548;22.968;2022-08-27T01:42:56;93503.13;;;15.75;81.29
10518;BME280;5307;42.548;22.968;2022-08-27T01:45:25;93503.13;;;15.75;80.39
10518;BME280;5307;42.548;22.968;2022-08-27T01:47:52;93505.81;;;15.64;81.36
10518;BME280;5307;42.548;22.968;2022-08-27T01:50:22;93508.56;;;15.64;81.99
10518;BME280;5307;42.548;22.968;2022-08-27T01:52:50;93507.59;;;15.47;82.60
10518;BME280;5307;42.548;22.968;2022-08-27T01:55:19;93512.69;;;15.80;81.27
10518;BME280;5307;42.548;22.968;2022-08-27T01:57:46;93506.09;;;15.71;80.40
10518;BME280;5307;42.548;22.968;2022-08-27T02:00:17;93502.34;;;15.74;80.03
10518;BME280;5307;42.548;22.968;2022-08-27T02:02:45;93508.00;;;15.60;80.91
10518;BME280;5307;42.548;22.968;2022-08-27T02:05:13;93508.31;;;15.67;80.55
10518;BME280;5307;42.548;22.968;2022-08-27T02:07:40;93505.25;;;15.60;81.13
10518;BME280;5307;42.548;22.968;2022-08-27T02:10:09;93504.66;;;15.50;81.87
10518;BME280;5307;42.548;22.968;2022-08-27T02:12:36;93497.06;;;15.65;80.28
10518;BME280;5307;42.548;22.968;2022-08-27T02:15:04;93501.69;;;15.54;80.59
10518;BME280;5307;42.548;22.968;2022-08-27T02:17:32;93498.16;;;15.53;80.52
10518;BME280;5307;42.548;22.968;2022-08-27T02:19:59;93511.56;;;15.66;80.09
10518;BME280;5307;42.548;22.968;2022-08-27T02:22:26;93513.66;;;15.77;79.95
10518;BME280;5307;42.548;22.968;2022-08-27T02:24:53;93514.47;;;15.57;81.09
10518;BME280;5307;42.548;22.968;2022-08-27T02:27:20;93515.94;;;15.52;80.70
10518;BME280;5307;42.548;22.968;2022-08-27T02:29:47;93515.94;;;15.52;82.30
10518;BME280;5307;42.548;22.968;2022-08-27T02:32:16;93524.47;;;15.28;82.96
10518;BME280;5307;42.548;22.968;2022-08-27T02:34:46;93525.66;;;15.22;83.82
10518;BME280;5307;42.548;22.968;2022-08-27T02:37:13;93522.53;;;15.34;82.54
10518;BME280;5307;42.548;22.968;2022-08-27T02:39:40;93531.34;;;15.18;83.36
10518;BME280;5307;42.548;22.968;2022-08-27T02:42:06;93535.47;;;15.28;83.20
10518;BME280;5307;42.548;22.968;2022-08-27T02:44:33;93540.09;;;15.42;82.11
10518;BME280;5307;42.548;22.968;2022-08-27T02:47:00;93538.69;;;15.53;82.14
10518;BME280;5307;42.548;22.968;2022-08-27T02:49:28;93538.06;;;15.37;82.30
10518;BME280;5307;42.548;22.968;2022-08-27T02:51:57;93541.31;;;15.36;83.14
10518;BME280;5307;42.548;22.968;2022-08-27T02:54:25;93536.53;;;15.10;83.78
10518;BME280;5307;42.548;22.968;2022-08-27T02:56:53;93545.94;;;15.24;83.40
10518;BME280;5307;42.548;22.968;2022-08-27T02:59:20;93547.19;;;15.23;84.15
10518;BME280;5307;42.548;22.968;2022-08-27T03:01:47;93548.59;;;14.93;84.72
10518;BME280;5307;42.548;22.968;2022-08-27T03:04:15;93550.97;;;15.05;84.51
10518;BME280;5307;42.548;22.968;2022-08-27T03:06:43;93549.16;;;15.23;83.07
10518;BME280;5307;42.548;22.968;2022-08-27T03:09:11;93548.69;;;15.04;83.60
10518;BME280;5307;42.548;22.968;2022-08-27T03:11:38;93558.31;;;15.14;83.23
10518;BME280;5307;42.548;22.968;2022-08-27T03:14:05;93549.94;;;15.23;82.21
10518;BME280;5307;42.548;22.968;2022-08-27T03:16:33;93540.50;;;14.83;83.35
10518;BME280;5307;42.548;22.968;2022-08-27T03:18:59;93549.97;;;14.82;84.32
10518;BME280;5307;42.548;22.968;2022-08-27T03:21:25;93558.06;;;14.92;84.58
10518;BME280;5307;42.548;22.968;2022-08-27T03:23:52;93559.63;;;15.19;83.56
10518;BME280;5307;42.548;22.968;2022-08-27T03:26:21;93565.41;;;15.00;83.74
10518;BME280;5307;42.548;22.968;2022-08-27T03:28:48;93554.28;;;14.89;84.29
10518;BME280;5307;42.548;22.968;2022-08-27T03:31:17;93555.19;;;15.01;84.15
10518;BME280;5307;42.548;22.968;2022-08-27T03:33:52;93551.22;;;14.81;84.67
10518;BME280;5307;42.548;22.968;2022-08-27T03:36:19;93559.03;;;14.89;84.69
10518;BME280;5307;42.548;22.968;2022-08-27T03:38:46;93556.56;;;14.91;84.22
10518;BME280;5307;42.548;22.968;2022-08-27T03:41:13;93562.06;;;14.91;85.38
10518;BME280;5307;42.548;22.968;2022-08-27T03:43:41;93567.19;;;15.03;83.90
10518;BME280;5307;42.548;22.968;2022-08-27T03:46:09;93563.19;;;14.78;84.71
10518;BME280;5307;42.548;22.968;2022-08-27T03:48:36;93561.28;;;14.90;83.99
10518;BME280;5307;42.548;22.968;2022-08-27T03:51:04;93560.88;;;14.77;85.00
10518;BME280;5307;42.548;22.968;2022-08-27T03:53:32;93561.09;;;14.73;85.36
10518;BME280;5307;42.548;22.968;2022-08-27T03:55:59;93571.22;;;14.82;85.15
10518;BME280;5307;42.548;22.968;2022-08-27T03:58:26;93575.28;;;14.66;86.21
10518;BME280;5307;42.548;22.968;2022-08-27T04:00:54;93578.53;;;14.91;84.63
10518;BME280;5307;42.548;22.968;2022-08-27T04:03:21;93589.28;;;14.68;85.13
10518;BME280;5307;42.548;22.968;2022-08-27T04:05:51;93587.38;;;14.95;83.98
10518;BME280;5307;42.548;22.968;2022-08-27T04:08:18;93596.28;;;14.69;84.95
10518;BME280;5307;42.548;22.968;2022-08-27T04:10:46;93581.94;;;14.80;84.75
10518;BME280;5307;42.548;22.968;2022-08-27T04:13:12;93596.44;;;14.80;85.33
10518;BME280;5307;42.548;22.968;2022-08-27T04:15:41;93601.66;;;14.78;85.79
10518;BME280;5307;42.548;22.968;2022-08-27T04:18:11;93589.84;;;14.93;85.44
10518;BME280;5307;42.548;22.968;2022-08-27T04:20:40;93599.59;;;14.94;85.72
10518;BME280;5307;42.548;22.968;2022-08-27T04:23:07;93596.84;;;14.94;85.86
10518;BME280;5307;42.548;22.968;2022-08-27T04:25:37;93601.44;;;15.02;85.49
10518;BME280;5307;42.548;22.968;2022-08-27T04:28:04;93602.63;;;14.96;85.89
10518;BME280;5307;42.548;22.968;2022-08-27T04:30:31;93597.94;;;15.02;85.74
10518;BME280;5307;42.548;22.968;2022-08-27T04:32:58;93604.59;;;15.15;84.48
10518;BME280;5307;42.548;22.968;2022-08-27T04:35:26;93600.69;;;15.02;85.49
10518;BME280;5307;42.548;22.968;2022-08-27T04:37:53;93602.28;;;15.08;85.22
10518;BME280;5307;42.548;22.968;2022-08-27T04:40:20;93604.38;;;15.19;85.28
10518;BME280;5307;42.548;22.968;2022-08-27T04:42:47;93598.41;;;15.21;85.45
10518;BME280;5307;42.548;22.968;2022-08-27T04:45:14;93591.59;;;15.36;84.81
10518;BME280;5307;42.548;22.968;2022-08-27T04:47:40;93593.41;;;15.45;84.58
10518;BME280;5307;42.548;22.968;2022-08-27T04:50:07;93597.75;;;15.52;84.73
10518;BME280;5307;42.548;22.968;2022-08-27T04:52:36;93595.59;;;15.61;85.22
10518;BME280;5307;42.548;22.968;2022-08-27T04:55:03;93596.16;;;15.65;84.78
10518;BME280;5307;42.548;22.968;2022-08-27T04:57:30;93602.53;;;15.77;84.18
10518;BME280;5307;42.548;22.968;2022-08-27T04:59:59;93604.56;;;15.82;81.83
10518;BME280;5307;42.548;22.968;2022-08-27T05:02:25;93605.72;;;16.01;81.64
10518;BME280;5307;42.548;22.968;2022-08-27T05:04:52;93605.84;;;15.87;81.38
10518;BME280;5307;42.548;22.968;2022-08-27T05:07:19;93608.47;;;16.01;80.82
10518;BME280;5307;42.548;22.968;2022-08-27T05:09:47;93600.06;;;16.16;81.38
10518;BME280;5307;42.548;22.968;2022-08-27T05:12:14;93603.41;;;16.26;79.38
10518;BME280;5307;42.548;22.968;2022-08-27T05:14:41;93611.28;;;16.07;79.64
10518;BME280;5307;42.548;22.968;2022-08-27T05:17:08;93602.34;;;16.18;79.93
10518;BME280;5307;42.548;22.968;2022-08-27T05:19:35;93605.59;;;16.53;77.69
10518;BME280;5307;42.548;22.968;2022-08-27T05:22:02;93612.47;;;16.32;78.35
10518;BME280;5307;42.548;22.968;2022-08-27T05:24:28;93604.34;;;16.49;77.63
10518;BME280;5307;42.548;22.968;2022-08-27T05:26:58;93603.22;;;16.72;77.16
10518;BME280;5307;42.548;22.968;2022-08-27T05:29:24;93600.50;;;17.32;74.32
10518;BME280;5307;42.548;22.968;2022-08-27T05:31:51;93599.53;;;17.51;74.22
10518;BME280;5307;42.548;22.968;2022-08-27T05:34:18;93602.66;;;18.26;73.02
10518;BME280;5307;42.548;22.968;2022-08-27T05:36:45;93604.41;;;17.79;71.59
10518;BME280;5307;42.548;22.968;2022-08-27T05:39:12;93603.13;;;17.86;71.67
10518;BME280;5307;42.548;22.968;2022-08-27T05:41:39;93611.47;;;18.30;71.48
10518;BME280;5307;42.548;22.968;2022-08-27T05:44:08;93606.91;;;18.61;69.29
10518;BME280;5307;42.548;22.968;2022-08-27T05:46:37;93604.16;;;18.50;69.78
10518;BME280;5307;42.548;22.968;2022-08-27T05:49:05;93599.56;;;18.91;67.45
10518;BME280;5307;42.548;22.968;2022-08-27T05:51:33;93611.06;;;19.18;68.29
10518;BME280;5307;42.548;22.968;2022-08-27T05:54:02;93602.56;;;18.93;67.93
10518;BME280;5307;42.548;22.968;2022-08-27T05:56:32;93615.13;;;19.06;67.11
10518;BME280;5307;42.548;22.968;2022-08-27T05:58:59;93619.13;;;19.16;67.00
10518;BME280;5307;42.548;22.968;2022-08-27T06:01:45;93622.69;;;18.99;68.65
10518;BME280;5307;42.548;22.968;2022-08-27T06:04:13;93615.97;;;20.00;66.90
10518;BME280;5307;42.548;22.968;2022-08-27T06:06:41;93622.78;;;19.99;66.16
10518;BME280;5307;42.548;22.968;2022-08-27T06:09:14;93620.19;;;20.06;66.37
10518;BME280;5307;42.548;22.968;2022-08-27T06:11:41;93615.34;;;20.12;64.77
10518;BME280;5307;42.548;22.968;2022-08-27T06:14:09;93611.91;;;20.66;61.75
10518;BME280;5307;42.548;22.968;2022-08-27T06:16:37;93612.81;;;20.50;62.93
10518;BME280;5307;42.548;22.968;2022-08-27T06:19:07;93613.09;;;20.11;65.87
10518;BME280;5307;42.548;22.968;2022-08-27T06:21:36;93624.75;;;20.69;63.18
10518;BME280;5307;42.548;22.968;2022-08-27T06:24:03;93623.78;;;20.31;63.69
10518;BME280;5307;42.548;22.968;2022-08-27T06:26:30;93619.09;;;20.81;61.53
10518;BME280;5307;42.548;22.968;2022-08-27T06:29:01;93627.19;;;21.03;60.89
10518;BME280;5307;42.548;22.968;2022-08-27T06:31:27;93614.06;;;21.28;60.47
10518;BME280;5307;42.548;22.968;2022-08-27T06:33:58;93618.56;;;21.07;60.17
10518;BME280;5307;42.548;22.968;2022-08-27T06:36:27;93625.25;;;20.98;61.89
10518;BME280;5307;42.548;22.968;2022-08-27T06:38:54;93607.28;;;21.85;60.40
10518;BME280;5307;42.548;22.968;2022-08-27T06:41:23;93612.25;;;21.06;60.14
10518;BME280;5307;42.548;22.968;2022-08-27T06:43:52;93620.66;;;21.00;60.67
10518;BME280;5307;42.548;22.968;2022-08-27T06:46:22;93615.91;;;20.95;60.95
10518;BME280;5307;42.548;22.968;2022-08-27T06:48:50;93596.38;;;21.50;59.05
10518;BME280;5307;42.548;22.968;2022-08-27T06:51:19;93605.41;;;22.12;56.80
10518;BME280;5307;42.548;22.968;2022-08-27T06:53:51;93604.78;;;21.63;59.09
10518;BME280;5307;42.548;22.968;2022-08-27T06:56:19;93611.06;;;22.52;56.49
10518;BME280;5307;42.548;22.968;2022-08-27T06:58:46;93598.09;;;22.09;59.28
10518;BME280;5307;42.548;22.968;2022-08-27T07:01:16;93594.31;;;22.71;58.12
10518;BME280;5307;42.548;22.968;2022-08-27T07:03:43;93601.97;;;22.84;57.27
10518;BME280;5307;42.548;22.968;2022-08-27T07:06:11;93599.94;;;22.84;57.25
10518;BME280;5307;42.548;22.968;2022-08-27T07:08:39;93594.94;;;22.64;56.80
10518;BME280;5307;42.548;22.968;2022-08-27T07:11:08;93602.59;;;22.44;57.21
10518;BME280;5307;42.548;22.968;2022-08-27T07:13:36;93600.41;;;22.56;56.88
10518;BME280;5307;42.548;22.968;2022-08-27T07:16:04;93604.97;;;22.40;55.25
10518;BME280;5307;42.548;22.968;2022-08-27T07:18:31;93599.25;;;22.78;54.70
10518;BME280;5307;42.548;22.968;2022-08-27T07:20:58;93608.22;;;22.58;55.21
10518;BME280;5307;42.548;22.968;2022-08-27T07:23:25;93606.06;;;22.96;55.19
10518;BME280;5307;42.548;22.968;2022-08-27T07:25:52;93605.94;;;23.54;51.27
10518;BME280;5307;42.548;22.968;2022-08-27T07:28:21;93609.16;;;24.06;49.91
10518;BME280;5307;42.548;22.968;2022-08-27T07:30:48;93603.25;;;24.09;52.78
10518;BME280;5307;42.548;22.968;2022-08-27T07:33:15;93602.84;;;23.31;52.30
10518;BME280;5307;42.548;22.968;2022-08-27T07:35:41;93611.63;;;24.09;52.69
10518;BME280;5307;42.548;22.968;2022-08-27T07:38:09;93612.50;;;24.59;50.04
10518;BME280;5307;42.548;22.968;2022-08-27T07:40:36;93604.41;;;23.80;52.04
10518;BME280;5307;42.548;22.968;2022-08-27T07:43:04;93609.41;;;25.12;49.67
10518;BME280;5307;42.548;22.968;2022-08-27T07:45:50;93607.59;;;24.31;48.57
10518;BME280;5307;42.548;22.968;2022-08-27T07:48:20;93609.09;;;24.19;48.28
10518;BME280;5307;42.548;22.968;2022-08-27T07:50:47;93608.69;;;25.19;47.44
10518;BME280;5307;42.548;22.968;2022-08-27T07:53:14;93615.41;;;24.33;48.50
10518;BME280;5307;42.548;22.968;2022-08-27T07:55:41;93607.72;;;25.09;47.53
10518;BME280;5307;42.548;22.968;2022-08-27T07:58:09;93604.59;;;24.92;47.92
10518;BME280;5307;42.548;22.968;2022-08-27T08:00:39;93602.97;;;25.25;47.15
10518;BME280;5307;42.548;22.968;2022-08-27T08:03:08;93602.78;;;25.23;45.84
10518;BME280;5307;42.548;22.968;2022-08-27T08:05:34;93599.59;;;25.98;47.07
10518;BME280;5307;42.548;22.968;2022-08-27T08:08:04;93600.56;;;25.29;44.97
10518;BME280;5307;42.548;22.968;2022-08-27T08:10:34;93606.69;;;24.99;47.34
10518;BME280;5307;42.548;22.968;2022-08-27T08:13:01;93592.97;;;25.73;47.20
10518;BME280;5307;42.548;22.968;2022-08-27T08:15:28;93610.03;;;25.54;45.14
10518;BME280;5307;42.548;22.968;2022-08-27T08:17:55;93604.38;;;25.46;46.38
10518;BME280;5307;42.548;22.968;2022-08-27T08:20:23;93598.56;;;25.73;45.30
10518;BME280;5307;42.548;22.968;2022-08-27T08:22:50;93594.16;;;25.85;44.84
10518;BME280;5307;42.548;22.968;2022-08-27T08:25:17;93596.00;;;26.42;44.33
10518;BME280;5307;42.548;22.968;2022-08-27T08:27:44;93599.59;;;25.55;46.41
10518;BME280;5307;42.548;22.968;2022-08-27T08:30:13;93587.94;;;26.30;46.84
10518;BME280;5307;42.548;22.968;2022-08-27T08:32:40;93586.50;;;26.83;44.69
10518;BME280;5307;42.548;22.968;2022-08-27T08:35:08;93591.91;;;26.50;45.94
10518;BME280;5307;42.548;22.968;2022-08-27T08:37:36;93589.50;;;27.23;44.60
10518;BME280;5307;42.548;22.968;2022-08-27T08:40:05;93595.31;;;27.10;44.07
10518;BME280;5307;42.548;22.968;2022-08-27T08:42:40;93593.06;;;27.08;46.63
10518;BME280;5307;42.548;22.968;2022-08-27T08:45:11;93595.31;;;27.10;45.17
10518;BME280;5307;42.548;22.968;2022-08-27T08:47:42;93588.59;;;26.75;43.21
10518;BME280;5307;42.548;22.968;2022-08-27T08:50:15;93587.06;;;27.19;44.39
10518;BME280;5307;42.548;22.968;2022-08-27T08:52:51;93590.44;;;26.65;42.31
10518;BME280;5307;42.548;22.968;2022-08-27T08:55:32;93593.22;;;26.95;42.41
10518;BME280;5307;42.548;22.968;2022-08-27T08:58:11;93584.97;;;27.35;41.82
10518;BME280;5307;42.548;22.968;2022-08-27T09:00:42;93587.63;;;26.49;41.56
10518;BME280;5307;42.548;22.968;2022-08-27T09:03:11;93580.16;;;27.20;40.26
10518;BME280;5307;42.548;22.968;2022-08-27T09:05:42;93590.25;;;27.24;39.03
10518;BME280;5307;42.548;22.968;2022-08-27T09:08:17;93578.91;;;27.69;38.91
10518;BME280;5307;42.548;22.968;2022-08-27T09:10:50;93579.09;;;27.71;37.08
10518;BME280;5307;42.548;22.968;2022-08-27T09:13:22;93576.94;;;28.85;36.28
10518;BME280;5307;42.548;22.968;2022-08-27T09:15:54;93576.22;;;27.87;38.15
10518;BME280;5307;42.548;22.968;2022-08-27T09:18:22;93572.13;;;28.53;40.14
10518;BME280;5307;42.548;22.968;2022-08-27T09:20:55;93568.19;;;28.56;39.95
10518;BME280;5307;42.548;22.968;2022-08-27T09:23:32;93569.97;;;28.44;37.36
10518;BME280;5307;42.548;22.968;2022-08-27T09:26:02;93559.13;;;28.00;38.95
10518;BME280;5307;42.548;22.968;2022-08-27T09:28:29;93564.97;;;28.84;40.06
10518;BME280;5307;42.548;22.968;2022-08-27T09:31:15;93570.66;;;28.52;40.20
10518;BME280;5307;42.548;22.968;2022-08-27T09:33:43;93565.94;;;28.79;40.70
10518;BME280;5307;42.548;22.968;2022-08-27T09:36:13;93559.47;;;28.94;38.25
10518;BME280;5307;42.548;22.968;2022-08-27T09:38:52;93564.22;;;29.09;39.56
10518;BME280;5307;42.548;22.968;2022-08-27T09:41:23;93546.13;;;29.37;38.02
10518;BME280;5307;42.548;22.968;2022-08-27T09:43:58;93558.97;;;28.63;37.20
10518;BME280;5307;42.548;22.968;2022-08-27T09:46:26;93562.47;;;28.46;36.61
10518;BME280;5307;42.548;22.968;2022-08-27T09:48:53;93558.78;;;28.36;37.13
10518;BME280;5307;42.548;22.968;2022-08-27T09:51:22;93558.22;;;28.87;37.00
10518;BME280;5307;42.548;22.968;2022-08-27T09:53:52;93559.00;;;28.80;34.03
10518;BME280;5307;42.548;22.968;2022-08-27T09:56:25;93554.94;;;28.98;36.89
10518;BME280;5307;42.548;22.968;2022-08-27T09:58:58;93555.94;;;29.11;34.12
10518;BME280;5307;42.548;22.968;2022-08-27T10:01:28;93546.69;;;29.01;34.35
10518;BME280;5307;42.548;22.968;2022-08-27T10:04:04;93554.66;;;29.29;33.61
10518;BME280;5307;42.548;22.968;2022-08-27T10:06:31;93540.94;;;28.91;31.71
10518;BME280;5307;42.548;22.968;2022-08-27T10:09:02;93548.63;;;29.67;38.35
10518;BME280;5307;42.548;22.968;2022-08-27T10:11:34;93543.84;;;29.60;33.11
10518;BME280;5307;42.548;22.968;2022-08-27T10:14:07;93548.44;;;29.82;31.75
10518;BME280;5307;42.548;22.968;2022-08-27T10:16:52;93545.22;;;29.69;31.48
10518;BME280;5307;42.548;22.968;2022-08-27T10:19:34;93549.84;;;29.91;34.45
10518;BME280;5307;42.548;22.968;2022-08-27T10:22:11;93541.50;;;29.49;33.96
10518;BME280;5307;42.548;22.968;2022-08-27T10:25:02;93550.69;;;29.67;34.01
10518;BME280;5307;42.548;22.968;2022-08-27T10:27:38;93555.47;;;29.39;32.21
10518;BME280;5307;42.548;22.968;2022-08-27T10:30:11;93543.31;;;29.37;33.06
10518;BME280;5307;42.548;22.968;2022-08-27T10:32:51;93540.63;;;29.46;31.97
10518;BME280;5307;42.548;22.968;2022-08-27T10:35:23;93547.00;;;30.08;33.08
10518;BME280;5307;42.548;22.968;2022-08-27T10:38:01;93548.03;;;29.69;33.16
10518;BME280;5307;42.548;22.968;2022-08-27T10:40:37;93551.44;;;29.50;32.21
10518;BME280;5307;42.548;22.968;2022-08-27T10:43:23;93550.84;;;29.69;34.00
10518;BME280;5307;42.548;22.968;2022-08-27T10:46:02;93546.91;;;30.16;32.47
10518;BME280;5307;42.548;22.968;2022-08-27T10:48:34;93542.19;;;29.57;33.92
10518;BME280;5307;42.548;22.968;2022-08-27T10:51:09;93545.13;;;29.24;33.17
10518;BME280;5307;42.548;22.968;2022-08-27T10:53:45;93534.31;;;29.73;33.68
10518;BME280;5307;42.548;22.968;2022-08-27T10:56:23;93543.19;;;29.10;33.47
10518;BME280;5307;42.548;22.968;2022-08-27T10:59:02;93542.97;;;29.15;34.06
10518;BME280;5307;42.548;22.968;2022-08-27T11:01:38;93532.34;;;29.48;34.75
10518;BME280;5307;42.548;22.968;2022-08-27T11:04:12;93532.13;;;29.81;34.41
10518;BME280;5307;42.548;22.968;2022-08-27T11:06:44;93537.81;;;29.91;35.77
10518;BME280;5307;42.548;22.968;2022-08-27T11:09:18;93529.69;;;29.50;33.48
10518;BME280;5307;42.548;22.968;2022-08-27T11:11:48;93528.00;;;29.30;33.65
10518;BME280;5307;42.548;22.968;2022-08-27T11:14:24;93521.16;;;30.02;34.40
10518;BME280;5307;42.548;22.968;2022-08-27T11:16:56;93516.22;;;29.41;33.07
10518;BME280;5307;42.548;22.968;2022-08-27T11:19:32;93523.53;;;29.44;34.53
10518;BME280;5307;42.548;22.968;2022-08-27T11:22:06;93512.13;;;29.42;33.66
10518;BME280;5307;42.548;22.968;2022-08-27T11:24:40;93520.63;;;29.35;33.00
10518;BME280;5307;42.548;22.968;2022-08-27T11:27:12;93514.72;;;29.92;35.51
10518;BME280;5307;42.548;22.968;2022-08-27T11:29:44;93509.94;;;29.68;33.83
10518;BME280;5307;42.548;22.968;2022-08-27T11:32:25;93512.38;;;29.71;34.38
10518;BME280;5307;42.548;22.968;2022-08-27T11:34:57;93507.31;;;29.97;32.69
10518;BME280;5307;42.548;22.968;2022-08-27T11:37:46;93508.69;;;29.78;32.42
10518;BME280;5307;42.548;22.968;2022-08-27T11:40:33;93505.44;;;29.99;33.11
10518;BME280;5307;42.548;22.968;2022-08-27T11:43:05;93503.56;;;29.67;32.35
10518;BME280;5307;42.548;22.968;2022-08-27T11:45:35;93492.06;;;29.73;34.81
10518;BME280;5307;42.548;22.968;2022-08-27T11:48:15;93502.59;;;29.72;31.69
10518;BME280;5307;42.548;22.968;2022-08-27T11:50:53;93496.56;;;29.59;32.78
10518;BME280;5307;42.548;22.968;2022-08-27T11:53:23;93499.81;;;29.82;34.57
10518;BME280;5307;42.548;22.968;2022-08-27T11:55:51;93496.72;;;29.43;29.91
10518;BME280;5307;42.548;22.968;2022-08-27T11:58:26;93493.44;;;29.81;34.43
10518;BME280;5307;42.548;22.968;2022-08-27T12:00:54;93492.50;;;29.96;33.65
10518;BME280;5307;42.548;22.968;2022-08-27T12:03:27;93489.03;;;28.92;30.49
10518;BME280;5307;42.548;22.968;2022-08-27T12:06:15;93485.22;;;28.97;30.55
10518;BME280;5307;42.548;22.968;2022-08-27T12:08:43;93482.50;;;29.07;31.00
10518;BME280;5307;42.548;22.968;2022-08-27T12:11:34;93478.19;;;29.06;31.15
10518;BME280;5307;42.548;22.968;2022-08-27T12:14:12;93483.06;;;29.05;32.37
10518;BME280;5307;42.548;22.968;2022-08-27T12:16:47;93475.13;;;29.46;31.53
10518;BME280;5307;42.548;22.968;2022-08-27T12:19:27;93484.66;;;29.50;30.47
10518;BME280;5307;42.548;22.968;2022-08-27T12:22:10;93479.91;;;29.36;33.15
10518;BME280;5307;42.548;22.968;2022-08-27T12:24:46;93474.56;;;29.47;28.60
10518;BME280;5307;42.548;22.968;2022-08-27T12:27:27;93473.22;;;29.48;31.68
10518;BME280;5307;42.548;22.968;2022-08-27T12:29:59;93470.72;;;29.35;27.97
10518;BME280;5307;42.548;22.968;2022-08-27T12:32:29;93471.72;;;29.13;28.63
10518;BME280;5307;42.548;22.968;2022-08-27T12:35:04;93468.00;;;29.27;34.61
10518;BME280;5307;42.548;22.968;2022-08-27T12:37:36;93464.44;;;29.44;31.58
10518;BME280;5307;42.548;22.968;2022-08-27T12:40:10;93468.09;;;29.20;29.84
10518;BME280;5307;42.548;22.968;2022-08-27T12:42:39;93469.41;;;29.36;34.57
10518;BME280;5307;42.548;22.968;2022-08-27T12:45:08;93471.00;;;29.47;32.14
10518;BME280;5307;42.548;22.968;2022-08-27T12:47:43;93460.66;;;29.49;29.81
10518;BME280;5307;42.548;22.968;2022-08-27T12:50:10;93455.03;;;29.49;33.01
10518;BME280;5307;42.548;22.968;2022-08-27T12:52:55;93454.19;;;29.22;29.35
10518;BME280;5307;42.548;22.968;2022-08-27T12:55:36;93454.19;;;29.22;29.96
10518;BME280;5307;42.548;22.968;2022-08-27T12:58:11;93451.97;;;29.20;31.03
10518;BME280;5307;42.548;22.968;2022-08-27T13:00:57;93444.09;;;29.36;30.06
10518;BME280;5307;42.548;22.968;2022-08-27T13:03:30;93447.47;;;29.35;30.29
10518;BME280;5307;42.548;22.968;2022-08-27T13:05:58;93448.41;;;29.20;30.81
10518;BME280;5307;42.548;22.968;2022-08-27T13:08:29;93447.97;;;29.58;32.35
10518;BME280;5307;42.548;22.968;2022-08-27T13:11:09;93445.41;;;29.52;31.05
10518;BME280;5307;42.548;22.968;2022-08-27T13:13:36;93437.75;;;29.18;29.01
10518;BME280;5307;42.548;22.968;2022-08-27T13:16:04;93439.38;;;29.21;30.14